createdAt,value
2022-10-18T00:02:26.738Z,969.90
2022-10-18T00:12:26.608Z,968.90
2022-10-18T00:17:26.453Z,968.90
2022-10-18T00:22:26.598Z,968.80
2022-10-18T00:27:26.395Z,968.80
2022-10-18T00:32:26.787Z,957.90
2022-10-18T00:37:26.704Z,957.90
2022-10-18T00:42:26.741Z,809.80
2022-10-18T00:47:26.852Z,809.80
2022-10-18T00:52:26.419Z,820.80
2022-10-18T00:57:26.380Z,820.80
2022-10-18T01:02:26.451Z,879.60
2022-10-18T01:07:26.412Z,879.60
2022-10-18T01:12:26.405Z,883.40
2022-10-18T01:17:26.580Z,883.40
2022-10-18T01:22:26.727Z,973.30
2022-10-18T01:27:26.540Z,973.30
2022-10-18T01:32:26.691Z,972.00
2022-10-18T01:37:26.507Z,972.00
2022-10-18T01:42:26.679Z,962.10
2022-10-18T01:47:26.506Z,962.10
2022-10-18T01:52:26.644Z,968.00
2022-10-18T02:02:26.613Z,967.30
2022-10-18T02:07:26.748Z,967.30
2022-10-18T02:17:26.975Z,955.50
2022-10-18T02:22:26.505Z,950.30
2022-10-18T02:27:26.681Z,950.30
2022-10-18T02:32:26.479Z,963.10
2022-10-18T02:42:26.473Z,947.90
2022-10-18T02:47:26.630Z,947.90
2022-10-18T02:52:26.767Z,966.30
2022-10-18T02:57:26.578Z,966.30
2022-10-18T03:02:26.712Z,906.00
2022-10-18T03:07:26.552Z,906.00
2022-10-18T03:17:26.781Z,954.10
2022-10-18T03:22:26.682Z,895.10
2022-10-18T03:27:26.520Z,895.10
2022-10-18T03:32:26.649Z,945.20
2022-10-18T03:37:26.489Z,945.20
2022-10-18T03:42:26.470Z,979.40
2022-10-18T03:47:26.452Z,979.40
2022-10-18T03:52:26.498Z,968.50
2022-10-18T03:57:26.461Z,968.50
2022-10-18T04:07:26.739Z,912.60
2022-10-18T04:12:26.481Z,914.00
2022-10-18T04:17:26.646Z,914.00
2022-10-18T04:22:26.819Z,978.30
2022-10-18T04:27:26.614Z,978.30
2022-10-18T04:32:26.783Z,955.20
2022-10-18T04:37:26.584Z,955.20
2022-10-18T04:42:26.724Z,981.40
2022-10-18T04:47:26.582Z,981.40
2022-10-18T04:52:26.724Z,972.80
2022-10-18T04:57:26.546Z,972.80
2022-10-18T05:02:26.691Z,973.50
2022-10-18T05:07:26.829Z,973.50
2022-10-18T05:12:26.641Z,973.90
2022-10-18T05:22:26.606Z,951.90
2022-10-18T05:27:26.764Z,951.90
2022-10-18T05:32:26.583Z,757.60
2022-10-18T05:37:28.378Z,757.60
2022-10-18T05:42:26.547Z,768.50
2022-10-18T05:47:26.722Z,768.50
2022-10-18T05:52:26.854Z,767.70
2022-10-18T05:57:26.635Z,767.70
2022-10-18T06:02:26.863Z,911.10
2022-10-18T06:07:26.652Z,911.10
2022-10-18T06:12:26.768Z,724.00
2022-10-18T06:17:28.981Z,724.00
2022-10-18T06:22:26.764Z,756.00
2022-10-18T06:27:26.549Z,756.00
2022-10-18T06:32:26.732Z,858.80
2022-10-18T06:37:26.969Z,858.80
2022-10-18T06:42:26.657Z,971.90
2022-10-18T06:47:26.553Z,971.90
2022-10-18T06:52:26.572Z,979.60
2022-10-18T06:57:26.555Z,979.60
2022-10-18T07:02:26.526Z,950.90
2022-10-18T07:07:26.559Z,950.90
2022-10-18T07:12:26.670Z,892.80
2022-10-18T07:17:26.733Z,892.80
2022-10-18T07:22:30.142Z,928.40
2022-10-18T07:27:26.686Z,928.40
2022-10-18T07:32:26.855Z,811.00
2022-10-18T07:37:29.358Z,811.00
2022-10-18T07:42:26.817Z,968.30
2022-10-18T07:47:28.068Z,968.30
2022-10-18T07:52:26.773Z,977.70
2022-10-18T07:57:26.618Z,977.70
2022-10-18T08:02:26.751Z,986.30
2022-10-18T08:07:26.892Z,986.30
2022-10-18T08:12:26.737Z,898.60
2022-10-18T08:17:26.885Z,898.60
2022-10-18T08:22:26.669Z,781.70
2022-10-18T08:27:26.847Z,781.70
2022-10-18T08:32:26.667Z,826.20
2022-10-18T08:37:26.813Z,826.20
2022-10-18T08:42:26.634Z,926.40
2022-10-18T08:47:26.853Z,926.40
2022-10-18T08:52:27.000Z,999.90
2022-10-18T08:57:26.719Z,999.90
2022-10-18T09:02:26.883Z,999.90
2022-10-18T09:07:26.721Z,999.90
2022-10-18T09:12:26.868Z,999.90
2022-10-18T09:17:26.669Z,999.90
2022-10-18T09:22:26.825Z,991.60
2022-10-18T09:27:26.828Z,991.60
2022-10-18T09:32:27.265Z,999.90
2022-10-18T09:37:26.956Z,999.90
2022-10-18T09:42:26.812Z,999.90
2022-10-18T09:47:26.970Z,999.90
2022-10-18T09:52:26.761Z,999.90
2022-10-18T09:57:27.000Z,999.90
2022-10-18T10:02:26.743Z,999.90
2022-10-18T10:07:29.764Z,999.90
2022-10-18T10:12:26.654Z,999.90
2022-10-18T10:17:26.640Z,999.90
2022-10-18T10:22:26.979Z,997.70
2022-10-18T10:27:26.806Z,997.70
2022-10-18T10:37:26.786Z,926.10
2022-10-18T10:42:26.924Z,946.30
2022-10-18T10:47:26.715Z,946.30
2022-10-18T10:52:28.048Z,953.20
2022-10-18T11:02:26.850Z,988.10
2022-10-18T11:07:26.995Z,988.10
2022-10-18T11:12:26.783Z,999.90
2022-10-18T11:17:26.949Z,999.90
2022-10-18T11:22:26.797Z,999.90
2022-10-18T11:27:26.932Z,999.90
2022-10-18T11:32:26.722Z,999.90
2022-10-18T11:37:30.097Z,999.90
2022-10-18T11:42:26.717Z,999.90
2022-10-18T11:47:26.882Z,999.90
2022-10-18T11:52:27.001Z,999.90
2022-10-18T11:57:26.685Z,999.90
2022-10-18T12:02:27.029Z,999.90
2022-10-18T12:07:31.621Z,999.90
2022-10-18T12:17:42.717Z,999.90
2022-10-18T12:22:26.683Z,999.90
2022-10-18T12:27:26.719Z,999.90
2022-10-18T12:32:26.707Z,999.90
2022-10-18T12:37:26.765Z,999.90
2022-10-18T12:42:26.844Z,993.60
2022-10-18T12:47:26.699Z,993.60
2022-10-18T12:52:26.817Z,978.60
2022-10-18T12:57:26.961Z,978.60
2022-10-18T13:02:26.809Z,750.80
2022-10-18T13:07:26.924Z,750.80
2022-10-18T13:12:26.729Z,783.30
2022-10-18T13:17:26.889Z,783.30
2022-10-18T13:22:27.057Z,794.80
2022-10-18T13:27:36.364Z,794.80
2022-10-18T13:32:27.028Z,814.90
2022-10-18T13:37:26.716Z,814.90
2022-10-18T13:42:26.767Z,820.20
2022-10-18T13:47:26.827Z,820.20
2022-10-18T13:52:26.950Z,999.90
2022-10-18T13:57:26.803Z,999.90
2022-10-18T14:02:49.877Z,999.90
2022-10-18T14:07:27.083Z,999.90
2022-10-18T14:12:26.868Z,999.90
2022-10-18T14:22:26.879Z,999.90
2022-10-18T14:27:26.992Z,999.90
2022-10-18T14:32:26.833Z,999.90
2022-10-18T14:37:26.970Z,999.90
2022-10-18T14:42:26.978Z,999.90
2022-10-18T14:47:26.785Z,999.90
2022-10-18T14:52:28.565Z,999.90
2022-10-18T14:57:26.931Z,999.90
2022-10-18T15:02:27.071Z,999.90
2022-10-18T15:07:26.859Z,999.90
2022-10-18T15:12:26.796Z,999.90
2022-10-18T15:17:26.856Z,999.90
2022-10-18T15:27:27.141Z,999.90
2022-10-18T15:32:26.777Z,999.90
2022-10-18T15:37:26.814Z,999.90
2022-10-18T15:42:26.848Z,999.90
2022-10-18T15:47:26.812Z,999.90
2022-10-18T15:52:26.825Z,999.90
2022-10-18T15:57:29.160Z,999.90
2022-10-18T16:02:26.801Z,999.90
2022-10-18T16:07:29.022Z,999.90
2022-10-18T16:12:26.823Z,999.90
2022-10-18T16:17:27.000Z,999.90
2022-10-18T16:22:27.123Z,854.00
2022-10-18T16:27:26.953Z,854.00
2022-10-18T16:32:27.095Z,999.90
2022-10-18T16:37:26.947Z,999.90
2022-10-18T16:42:27.063Z,999.90
2022-10-18T16:47:26.894Z,999.90
2022-10-18T16:52:27.023Z,999.90
2022-10-18T16:57:26.838Z,999.90
2022-10-18T17:02:27.002Z,999.90
2022-10-18T17:07:27.160Z,999.90
2022-10-18T17:17:27.456Z,999.90
2022-10-18T17:22:26.859Z,999.90
2022-10-18T17:27:27.207Z,999.90
2022-10-18T17:32:27.017Z,999.90
2022-10-18T17:37:27.109Z,999.90
2022-10-18T17:42:26.878Z,999.90
2022-10-18T17:47:27.287Z,999.90
2022-10-18T17:52:27.160Z,999.90
2022-10-18T17:57:27.262Z,999.90
2022-10-18T18:02:27.066Z,999.90
2022-10-18T18:07:27.949Z,999.90
2022-10-18T18:12:26.937Z,999.90
2022-10-18T18:17:34.069Z,999.90
2022-10-18T18:22:27.094Z,999.90
2022-10-18T18:27:27.104Z,999.90
2022-10-18T18:32:27.159Z,999.90
2022-10-18T18:37:27.328Z,999.90
2022-10-18T18:42:27.148Z,999.90
2022-10-18T18:47:27.192Z,999.90
2022-10-18T18:52:27.175Z,999.90
2022-10-18T18:57:27.143Z,999.90
2022-10-18T19:02:26.886Z,999.90
2022-10-18T19:07:27.364Z,999.90
2022-10-18T19:12:27.178Z,999.60
2022-10-18T19:17:27.206Z,999.60
2022-10-18T19:22:27.198Z,995.20
2022-10-18T19:27:27.232Z,995.20
2022-10-18T19:32:29.692Z,995.60
2022-10-18T19:37:27.212Z,995.60
2022-10-18T19:42:30.319Z,947.60
2022-10-18T19:47:27.259Z,947.60
2022-10-18T19:52:27.040Z,918.20
2022-10-18T19:57:27.472Z,918.20
2022-10-18T20:02:27.085Z,919.50
2022-10-18T20:07:27.220Z,919.50
2022-10-18T20:12:27.042Z,991.20
2022-10-18T20:17:27.503Z,991.20
2022-10-18T20:22:26.919Z,987.20
2022-10-18T20:27:27.193Z,987.20
2022-10-18T20:32:26.931Z,987.70
2022-10-18T20:37:26.963Z,987.70
2022-10-18T20:42:26.949Z,998.10
2022-10-18T20:47:26.985Z,998.10
2022-10-18T20:52:26.919Z,980.60
2022-10-18T20:57:27.013Z,980.60
2022-10-18T21:02:26.971Z,961.30
2022-10-18T21:07:27.069Z,961.30
2022-10-18T21:12:28.879Z,874.30
2022-10-18T21:17:27.035Z,874.30
2022-10-18T21:22:26.973Z,983.60
2022-10-18T21:27:27.301Z,983.60
2022-10-18T21:32:26.980Z,977.70
2022-10-18T21:37:27.283Z,977.70
2022-10-18T21:42:26.950Z,981.60
2022-10-18T21:47:27.236Z,981.60
2022-10-18T21:52:27.008Z,992.80
2022-10-18T21:57:27.250Z,992.80
2022-10-18T22:02:26.979Z,980.30
2022-10-18T22:07:27.193Z,980.30
2022-10-18T22:12:26.961Z,893.00
2022-10-18T22:17:27.075Z,893.00
2022-10-18T22:22:27.303Z,882.00
2022-10-18T22:27:27.098Z,882.00
2022-10-18T22:32:27.268Z,985.90
2022-10-18T22:37:27.078Z,985.90
2022-10-18T22:42:27.261Z,983.90
2022-10-18T22:47:27.035Z,983.90
2022-10-18T22:52:27.220Z,938.10
2022-10-18T22:57:27.003Z,938.10
2022-10-18T23:02:27.010Z,880.10
2022-10-18T23:07:27.325Z,880.10
2022-10-18T23:12:27.155Z,916.60
2022-10-18T23:22:27.127Z,919.00
2022-10-18T23:27:27.270Z,919.00
2022-10-18T23:32:27.071Z,947.00
2022-10-18T23:37:27.236Z,947.00
2022-10-18T23:42:27.021Z,934.60
2022-10-18T23:47:27.069Z,934.60
2022-10-18T23:52:27.061Z,967.80
2022-10-18T23:57:27.043Z,967.80
